Time;durP1;ratioP1;P1;durP2;ratioP2;P2;SDS_P1;SDS_P2;PMS_P1;PMS_P2;Temp;Humidity;BMP_temperature;BMP_pressure;BME280_temperature;BME280_humidity;BME280_pressure;Samples;Min_cycle;Max_cycle;Signal;HPM_P1;HPM_P2
2021/09/11 00:02:27;;;;;;;418.95;321.75;;;;;;;;;;4393021;32;20443;-54
2021/09/11 00:04:56;;;;;;;427.20;322.08;;;;;;;;;;4396427;32;20063;-54
2021/09/11 00:07:25;;;;;;;427.52;324.23;;;;;;;;;;4390126;32;20113;-54
2021/09/11 00:09:53;;;;;;;354.30;285.38;;;;;;;;;;4389682;32;20086;-54
2021/09/11 00:12:21;;;;;;;356.70;285.08;;;;;;;;;;4392437;32;20061;-54
2021/09/11 00:14:50;;;;;;;356.90;287.52;;;;;;;;;;4393677;32;20074;-54
2021/09/11 00:17:18;;;;;;;354.33;286.40;;;;;;;;;;4396997;32;20039;-55
2021/09/11 00:19:47;;;;;;;352.77;287.95;;;;;;;;;;4402963;32;20047;-54
2021/09/11 00:22:15;;;;;;;353.75;284.42;;;;;;;;;;4399098;32;20155;-54
2021/09/11 00:24:43;;;;;;;390.12;307.92;;;;;;;;;;4403038;32;20447;-54
2021/09/11 00:27:12;;;;;;;410.85;321.13;;;;;;;;;;4396708;32;20650;-54
2021/09/11 00:29:40;;;;;;;397.40;311.37;;;;;;;;;;4390665;32;20688;-54
2021/09/11 00:32:08;;;;;;;409.67;319.20;;;;;;;;;;4389186;32;20046;-54
2021/09/11 00:34:37;;;;;;;372.33;296.50;;;;;;;;;;4388488;32;20042;-55
2021/09/11 00:37:05;;;;;;;371.13;293.88;;;;;;;;;;4399438;32;20096;-54
2021/09/11 00:39:34;;;;;;;357.67;285.95;;;;;;;;;;4392923;32;20051;-54
2021/09/11 00:42:02;;;;;;;358.55;287.02;;;;;;;;;;4387907;32;20047;-55
2021/09/11 00:44:31;;;;;;;346.15;285.48;;;;;;;;;;4373772;32;20070;-54
2021/09/11 00:46:59;;;;;;;358.55;288.58;;;;;;;;;;4384714;32;20462;-55
2021/09/11 00:49:27;;;;;;;354.85;287.42;;;;;;;;;;4387603;32;20070;-54
2021/09/11 00:51:56;;;;;;;404.65;308.63;;;;;;;;;;4387875;32;20074;-54
2021/09/11 00:54:24;;;;;;;393.02;302.65;;;;;;;;;;4386965;32;20035;-55
2021/09/11 00:56:52;;;;;;;408.25;310.00;;;;;;;;;;4386703;32;20089;-54
2021/09/11 00:59:21;;;;;;;368.42;289.70;;;;;;;;;;4388602;32;20055;-55
2021/09/11 01:01:49;;;;;;;349.42;282.15;;;;;;;;;;4385754;32;20046;-54
2021/09/11 01:04:18;;;;;;;349.23;278.90;;;;;;;;;;4386948;32;20043;-54
2021/09/11 01:06:46;;;;;;;345.75;279.58;;;;;;;;;;4384114;32;20051;-53
2021/09/11 01:09:15;;;;;;;427.13;316.55;;;;;;;;;;4388030;32;20083;-53
2021/09/11 01:11:44;;;;;;;346.83;280.65;;;;;;;;;;4384331;32;20054;-53
2021/09/11 01:14:12;;;;;;;349.80;279.05;;;;;;;;;;4383938;32;20055;-53
2021/09/11 01:16:41;;;;;;;347.27;280.60;;;;;;;;;;4385147;32;20043;-51
2021/09/11 01:19:09;;;;;;;356.80;284.60;;;;;;;;;;4385172;32;20078;-53
2021/09/11 01:21:38;;;;;;;350.15;281.50;;;;;;;;;;4384137;32;20070;-53
2021/09/11 01:24:06;;;;;;;346.90;283.38;;;;;;;;;;4388008;32;20052;-52
2021/09/11 01:26:34;;;;;;;399.05;304.73;;;;;;;;;;4386807;32;20047;-53
2021/09/11 01:29:03;;;;;;;352.62;284.80;;;;;;;;;;4387757;32;20125;-54
2021/09/11 01:31:35;;;;;;;348.15;284.00;;;;;;;;;;4386143;32;20641;-53
2021/09/11 01:34:04;;;;;;;348.48;282.85;;;;;;;;;;4388438;32;20035;-53
2021/09/11 01:36:32;;;;;;;395.52;305.73;;;;;;;;;;4385808;32;20058;-54
2021/09/11 01:39:00;;;;;;;418.77;315.67;;;;;;;;;;4386897;32;20081;-54
2021/09/11 01:41:29;;;;;;;435.08;325.42;;;;;;;;;;4387099;32;20077;-54
2021/09/11 01:43:57;;;;;;;433.75;320.02;;;;;;;;;;4385275;32;20101;-54
2021/09/11 01:46:25;;;;;;;418.30;311.90;;;;;;;;;;4385516;32;20109;-54
2021/09/11 01:48:54;;;;;;;424.38;316.70;;;;;;;;;;4378040;32;20427;-54
2021/09/11 01:51:22;;;;;;;421.23;311.70;;;;;;;;;;4387076;32;20406;-53
2021/09/11 01:53:50;;;;;;;409.15;311.65;;;;;;;;;;4385384;32;20051;-54
2021/09/11 01:56:19;;;;;;;413.90;311.83;;;;;;;;;;4386056;32;20079;-54
2021/09/11 01:58:47;;;;;;;415.90;313.17;;;;;;;;;;4387187;32;20083;-54
2021/09/11 02:01:15;;;;;;;415.48;313.80;;;;;;;;;;4386264;32;20136;-54
2021/09/11 02:03:44;;;;;;;418.75;316.15;;;;;;;;;;4384400;32;20055;-54
2021/09/11 02:06:13;;;;;;;426.73;321.67;;;;;;;;;;4386021;32;20658;-55
2021/09/11 02:08:41;;;;;;;425.98;320.75;;;;;;;;;;4388312;32;20104;-54
2021/09/11 02:11:09;;;;;;;428.38;318.37;;;;;;;;;;4385527;32;20443;-54
2021/09/11 02:13:38;;;;;;;424.40;316.88;;;;;;;;;;4385803;32;20085;-54
2021/09/11 02:16:06;;;;;;;429.50;319.62;;;;;;;;;;4379669;32;20082;-54
2021/09/11 02:18:35;;;;;;;427.48;316.60;;;;;;;;;;4385952;32;20051;-54
2021/09/11 02:21:03;;;;;;;431.05;317.37;;;;;;;;;;4390965;32;20043;-54
2021/09/11 02:23:31;;;;;;;425.87;315.98;;;;;;;;;;4386083;32;20054;-54
2021/09/11 02:25:59;;;;;;;425.85;317.70;;;;;;;;;;4380947;32;20110;-55
2021/09/11 02:28:28;;;;;;;419.37;314.63;;;;;;;;;;4385551;32;20043;-54
2021/09/11 02:30:56;;;;;;;417.87;316.50;;;;;;;;;;4384940;32;20062;-54
2021/09/11 02:33:24;;;;;;;385.73;306.25;;;;;;;;;;4383944;32;20067;-54
2021/09/11 02:35:53;;;;;;;363.77;308.42;;;;;;;;;;4385188;32;20047;-53
2021/09/11 02:38:21;;;;;;;312.20;281.70;;;;;;;;;;4384945;32;20035;-54
2021/09/11 02:40:49;;;;;;;325.23;295.02;;;;;;;;;;4384249;32;20076;-54
2021/09/11 02:43:18;;;;;;;379.83;338.10;;;;;;;;;;4377313;32;20047;-54
2021/09/11 02:45:46;;;;;;;431.45;358.67;;;;;;;;;;4386642;32;20158;-54
2021/09/11 02:48:14;;;;;;;455.67;360.92;;;;;;;;;;4384538;32;20485;-54
2021/09/11 02:50:43;;;;;;;470.75;363.98;;;;;;;;;;4386588;32;20471;-54
2021/09/11 02:53:11;;;;;;;471.15;360.60;;;;;;;;;;4386789;32;20122;-54
2021/09/11 02:55:39;;;;;;;479.50;359.55;;;;;;;;;;4385593;32;20055;-54
2021/09/11 02:58:08;;;;;;;485.75;357.77;;;;;;;;;;4386699;32;20083;-54
2021/09/11 03:00:36;;;;;;;485.15;355.10;;;;;;;;;;4383301;32;20086;-54
2021/09/11 03:03:04;;;;;;;489.35;355.85;;;;;;;;;;4384529;32;20038;-54
2021/09/11 03:05:33;;;;;;;476.23;349.85;;;;;;;;;;4387065;32;20047;-55
2021/09/11 03:08:01;;;;;;;483.33;353.37;;;;;;;;;;4385425;32;20123;-54
2021/09/11 03:10:29;;;;;;;492.20;354.60;;;;;;;;;;4385632;32;20073;-54
2021/09/11 03:12:58;;;;;;;487.05;351.92;;;;;;;;;;4386846;32;20039;-54
2021/09/11 03:15:26;;;;;;;488.50;350.27;;;;;;;;;;4378899;32;20075;-54
2021/09/11 03:17:55;;;;;;;487.00;351.37;;;;;;;;;;4380792;32;20075;-55
2021/09/11 03:20:23;;;;;;;483.25;348.33;;;;;;;;;;4385079;32;20042;-55
2021/09/11 03:22:51;;;;;;;479.17;347.42;;;;;;;;;;4383901;32;20834;-54
2021/09/11 03:25:19;;;;;;;481.95;349.23;;;;;;;;;;4386752;32;20066;-54
2021/09/11 03:27:48;;;;;;;482.58;351.88;;;;;;;;;;4385534;32;20069;-54
2021/09/11 03:30:16;;;;;;;483.55;351.35;;;;;;;;;;4389050;32;20046;-54
2021/09/11 03:32:44;;;;;;;489.02;355.45;;;;;;;;;;4383808;32;20109;-54
2021/09/11 03:35:14;;;;;;;487.15;354.92;;;;;;;;;;4386417;32;20419;-54
2021/09/11 03:37:42;;;;;;;484.00;351.05;;;;;;;;;;4386508;32;20116;-54
2021/09/11 03:40:10;;;;;;;475.12;352.98;;;;;;;;;;4384862;32;20466;-54
2021/09/11 03:42:39;;;;;;;471.20;354.58;;;;;;;;;;4384659;32;20055;-54
2021/09/11 03:45:07;;;;;;;473.10;356.58;;;;;;;;;;4392658;32;20356;-54
2021/09/11 03:47:36;;;;;;;479.15;358.83;;;;;;;;;;4384158;32;20177;-54
2021/09/11 03:50:05;;;;;;;483.80;365.20;;;;;;;;;;4383505;32;20054;-54
2021/09/11 03:52:34;;;;;;;483.62;366.98;;;;;;;;;;4384067;32;20039;-54
2021/09/11 03:55:03;;;;;;;482.12;362.95;;;;;;;;;;4384931;32;20047;-55
2021/09/11 03:57:32;;;;;;;477.62;363.35;;;;;;;;;;4385634;32;20035;-54
2021/09/11 04:00:00;;;;;;;477.33;365.20;;;;;;;;;;4390745;32;20408;-54
2021/09/11 04:02:37;;;;;;;465.45;363.02;;;;;;;;;;4377899;32;20057;-53
2021/09/11 04:05:07;;;;;;;462.90;366.52;;;;;;;;;;4383998;32;20139;-52
2021/09/11 04:07:35;;;;;;;465.52;374.62;;;;;;;;;;4375931;32;20074;-54
2021/09/11 04:10:03;;;;;;;479.90;378.02;;;;;;;;;;4372560;32;20039;-53
2021/09/11 04:12:32;;;;;;;489.95;381.50;;;;;;;;;;4379612;32;21013;-54
2021/09/11 04:15:00;;;;;;;493.98;384.45;;;;;;;;;;4374900;32;20498;-54
2021/09/11 04:17:28;;;;;;;497.40;385.67;;;;;;;;;;4379635;32;20039;-54
2021/09/11 04:19:57;;;;;;;499.38;383.90;;;;;;;;;;4388679;32;20151;-54
2021/09/11 04:22:25;;;;;;;496.05;384.60;;;;;;;;;;4390578;32;20121;-54
2021/09/11 04:24:53;;;;;;;501.77;386.35;;;;;;;;;;4387564;32;20065;-54
2021/09/11 04:27:21;;;;;;;495.12;393.17;;;;;;;;;;4387540;32;20040;-55
2021/09/11 04:29:49;;;;;;;484.98;399.17;;;;;;;;;;4388409;32;20151;-54
2021/09/11 04:32:18;;;;;;;467.73;396.20;;;;;;;;;;4385018;32;20086;-54
2021/09/11 04:34:46;;;;;;;486.17;408.65;;;;;;;;;;4386429;32;20560;-54
2021/09/11 04:37:15;;;;;;;494.17;413.63;;;;;;;;;;4395891;32;20077;-55
2021/09/11 04:39:43;;;;;;;501.33;413.75;;;;;;;;;;4392730;32;20141;-54
2021/09/11 04:42:12;;;;;;;498.42;411.55;;;;;;;;;;4389294;32;20089;-54
2021/09/11 04:44:40;;;;;;;497.25;416.08;;;;;;;;;;4387324;32;20051;-54
2021/09/11 04:47:08;;;;;;;502.85;426.35;;;;;;;;;;4385648;32;20138;-54
2021/09/11 04:49:37;;;;;;;514.63;417.92;;;;;;;;;;4388174;32;20089;-55
2021/09/11 04:52:05;;;;;;;518.28;419.92;;;;;;;;;;4388318;32;20109;-54
2021/09/11 04:54:34;;;;;;;516.70;419.00;;;;;;;;;;4387068;32;20085;-55
2021/09/11 04:57:02;;;;;;;502.45;435.37;;;;;;;;;;4392716;32;20130;-54
2021/09/11 04:59:30;;;;;;;501.67;436.12;;;;;;;;;;4399620;32;20106;-54
2021/09/11 05:01:59;;;;;;;511.33;424.45;;;;;;;;;;4388379;32;20055;-54
2021/09/11 05:04:28;;;;;;;512.12;425.92;;;;;;;;;;4388188;32;20687;-55
2021/09/11 05:06:56;;;;;;;515.95;429.58;;;;;;;;;;4384552;32;20155;-54
2021/09/11 05:09:24;;;;;;;517.20;428.25;;;;;;;;;;4387406;32;20061;-54
2021/09/11 05:11:53;;;;;;;520.72;433.73;;;;;;;;;;4389642;32;20054;-55
2021/09/11 05:14:21;;;;;;;515.70;430.35;;;;;;;;;;4386930;32;20074;-54
2021/09/11 05:16:49;;;;;;;518.15;427.55;;;;;;;;;;4390460;32;20768;-54
2021/09/11 05:19:18;;;;;;;519.45;427.37;;;;;;;;;;4389079;32;20089;-54
2021/09/11 05:21:46;;;;;;;515.62;426.60;;;;;;;;;;4387356;32;20055;-54
2021/09/11 05:24:16;;;;;;;516.75;426.30;;;;;;;;;;4387991;32;20047;-54
2021/09/11 05:26:45;;;;;;;511.17;429.23;;;;;;;;;;4387711;32;20092;-55
2021/09/11 05:29:14;;;;;;;512.03;430.55;;;;;;;;;;4387364;32;20061;-54
2021/09/11 05:31:42;;;;;;;517.00;431.95;;;;;;;;;;4388120;32;20088;-54
2021/09/11 05:34:10;;;;;;;515.80;428.73;;;;;;;;;;4390875;32;20043;-54
2021/09/11 05:36:39;;;;;;;518.10;448.50;;;;;;;;;;4393771;32;20556;-54
2021/09/11 05:39:07;;;;;;;526.63;437.10;;;;;;;;;;4386760;32;20078;-54
2021/09/11 05:41:35;;;;;;;531.15;434.27;;;;;;;;;;4386725;32;20062;-54
2021/09/11 05:44:04;;;;;;;523.58;432.30;;;;;;;;;;4386604;32;20069;-54
2021/09/11 05:46:32;;;;;;;529.15;436.30;;;;;;;;;;4385917;32;20480;-54
2021/09/11 05:49:00;;;;;;;527.22;431.50;;;;;;;;;;4390953;32;20065;-54
2021/09/11 05:51:28;;;;;;;525.55;432.20;;;;;;;;;;4390735;32;20054;-54
2021/09/11 05:53:57;;;;;;;530.22;431.50;;;;;;;;;;4389523;32;20095;-55
2021/09/11 05:56:25;;;;;;;534.60;431.67;;;;;;;;;;4387166;32;20058;-54
2021/09/11 05:58:53;;;;;;;524.70;426.25;;;;;;;;;;4387801;32;20610;-54
2021/09/11 06:01:21;;;;;;;518.92;415.40;;;;;;;;;;4389043;32;20116;-54
2021/09/11 06:03:50;;;;;;;501.23;413.98;;;;;;;;;;4390070;32;20051;-54
2021/09/11 06:06:19;;;;;;;515.45;415.70;;;;;;;;;;4387458;32;20096;-54
2021/09/11 06:08:47;;;;;;;511.23;413.67;;;;;;;;;;4394452;32;20612;-54
2021/09/11 06:11:15;;;;;;;522.50;418.98;;;;;;;;;;4386539;32;20051;-54
2021/09/11 06:13:44;;;;;;;525.97;416.95;;;;;;;;;;4385412;32;20082;-54
2021/09/11 06:16:12;;;;;;;536.15;412.95;;;;;;;;;;4390736;32;20086;-54
2021/09/11 06:18:41;;;;;;;542.22;412.05;;;;;;;;;;4385214;32;20042;-54
2021/09/11 06:21:09;;;;;;;540.88;409.90;;;;;;;;;;4393294;32;20055;-54
2021/09/11 06:23:37;;;;;;;533.25;400.80;;;;;;;;;;4386238;32;20081;-54
2021/09/11 06:26:06;;;;;;;520.20;394.55;;;;;;;;;;4400954;32;20490;-55
2021/09/11 06:28:34;;;;;;;520.53;405.63;;;;;;;;;;4398829;32;20038;-55
2021/09/11 06:31:02;;;;;;;525.72;386.17;;;;;;;;;;4389294;32;20087;-54
2021/09/11 06:33:31;;;;;;;512.15;395.95;;;;;;;;;;4380312;32;20044;-55
2021/09/11 06:36:00;;;;;;;523.13;388.65;;;;;;;;;;4380715;32;20063;-54
2021/09/11 06:38:28;;;;;;;525.58;386.67;;;;;;;;;;4383694;32;20047;-54
2021/09/11 06:40:56;;;;;;;529.80;387.77;;;;;;;;;;4380616;32;20086;-55
2021/09/11 06:43:24;;;;;;;528.33;382.25;;;;;;;;;;4377975;32;20071;-54
2021/09/11 06:45:53;;;;;;;531.87;383.08;;;;;;;;;;4387944;32;20082;-52
2021/09/11 06:48:21;;;;;;;514.75;378.00;;;;;;;;;;4378202;32;20038;-54
2021/09/11 06:50:49;;;;;;;510.33;371.02;;;;;;;;;;4379562;32;20129;-54
2021/09/11 06:53:19;;;;;;;472.42;335.55;;;;;;;;;;4381259;32;20077;-55
2021/09/11 06:55:47;;;;;;;474.65;317.23;;;;;;;;;;4380786;32;20119;-54
2021/09/11 06:58:15;;;;;;;496.50;301.62;;;;;;;;;;4381447;32;20117;-54
2021/09/11 07:00:43;;;;;;;509.95;322.40;;;;;;;;;;4379834;32;20142;-54
2021/09/11 07:03:12;;;;;;;506.52;301.55;;;;;;;;;;4379570;32;20086;-55
2021/09/11 07:05:42;;;;;;;513.05;307.20;;;;;;;;;;4385786;32;20081;-54
2021/09/11 07:08:10;;;;;;;499.55;312.98;;;;;;;;;;4379824;32;20051;-54
2021/09/11 07:10:38;;;;;;;515.85;314.55;;;;;;;;;;4381462;32;20121;-54
2021/09/11 07:13:07;;;;;;;507.20;312.08;;;;;;;;;;4376363;32;20099;-54
2021/09/11 07:15:35;;;;;;;509.42;317.25;;;;;;;;;;4382296;32;20109;-54
2021/09/11 07:18:03;;;;;;;515.35;322.48;;;;;;;;;;4377506;32;20047;-55
2021/09/11 07:20:32;;;;;;;521.45;329.45;;;;;;;;;;4378402;32;20067;-55
2021/09/11 07:23:01;;;;;;;531.15;328.48;;;;;;;;;;4380236;32;21679;-55
2021/09/11 07:25:30;;;;;;;499.40;341.12;;;;;;;;;;4382982;32;20071;-55
2021/09/11 07:27:58;;;;;;;594.97;365.27;;;;;;;;;;4380824;32;20038;-54
2021/09/11 07:30:26;;;;;;;594.72;365.23;;;;;;;;;;4376732;32;20048;-54
2021/09/11 07:32:55;;;;;;;593.03;368.08;;;;;;;;;;4377015;32;20101;-55
2021/09/11 07:35:23;;;;;;;527.97;315.42;;;;;;;;;;4378582;32;20179;-55
2021/09/11 07:37:51;;;;;;;565.05;339.12;;;;;;;;;;4379967;32;20086;-55
2021/09/11 07:40:20;;;;;;;613.90;362.12;;;;;;;;;;4378547;32;20082;-55
2021/09/11 07:42:48;;;;;;;612.62;361.00;;;;;;;;;;4378593;32;20070;-55
2021/09/11 07:45:17;;;;;;;626.33;363.40;;;;;;;;;;4381846;32;20134;-55
2021/09/11 07:47:46;;;;;;;567.05;389.10;;;;;;;;;;4378708;32;20503;-55
2021/09/11 07:50:14;;;;;;;573.15;388.45;;;;;;;;;;4379536;32;20094;-55
2021/09/11 07:52:42;;;;;;;651.72;418.55;;;;;;;;;;4379352;32;20087;-55
2021/09/11 07:55:10;;;;;;;592.28;419.48;;;;;;;;;;4381406;32;20043;-55
2021/09/11 07:57:39;;;;;;;624.75;433.15;;;;;;;;;;4382706;32;20179;-55
2021/09/11 08:00:07;;;;;;;612.38;440.08;;;;;;;;;;4382796;32;20193;-55
2021/09/11 08:02:35;;;;;;;626.75;459.60;;;;;;;;;;4381795;32;20125;-55
2021/09/11 08:05:04;;;;;;;625.03;478.12;;;;;;;;;;4381812;32;20101;-55
2021/09/11 08:07:32;;;;;;;616.97;496.20;;;;;;;;;;4383128;32;20128;-55
2021/09/11 08:10:01;;;;;;;544.03;469.42;;;;;;;;;;4374068;32;20487;-56
2021/09/11 08:12:29;;;;;;;135.45;123.95;;;;;;;;;;4382326;32;20051;-55
2021/09/11 08:14:58;;;;;;;15.85;11.93;;;;;;;;;;4382494;32;20095;-56
2021/09/11 08:17:27;;;;;;;7.82;2.00;;;;;;;;;;4383011;32;20054;-55
2021/09/11 08:19:55;;;;;;;6.22;1.85;;;;;;;;;;4383151;32;20116;-55
2021/09/11 08:22:23;;;;;;;12.15;3.90;;;;;;;;;;4387077;32;20138;-55
2021/09/11 08:24:53;;;;;;;5.87;1.90;;;;;;;;;;4387401;32;20058;-55
2021/09/11 08:27:21;;;;;;;6.62;1.52;;;;;;;;;;4383056;32;21888;-55
2021/09/11 08:29:49;;;;;;;5.07;1.70;;;;;;;;;;4383586;32;20473;-55
2021/09/11 08:32:18;;;;;;;6.85;2.00;;;;;;;;;;4387498;32;20180;-55
2021/09/11 08:34:46;;;;;;;4.40;1.42;;;;;;;;;;4390324;32;20413;-55
2021/09/11 08:37:16;;;;;;;5.70;1.70;;;;;;;;;;4385733;32;20043;-55
2021/09/11 08:39:44;;;;;;;9.25;1.50;;;;;;;;;;4387192;32;20074;-55
2021/09/11 08:42:12;;;;;;;5.30;1.65;;;;;;;;;;4387086;32;20722;-55
2021/09/11 08:44:40;;;;;;;7.00;2.03;;;;;;;;;;4387905;32;20051;-55
2021/09/11 08:47:09;;;;;;;6.40;1.58;;;;;;;;;;4387182;32;20070;-55
2021/09/11 08:49:37;;;;;;;6.40;1.50;;;;;;;;;;4387738;32;20069;-55
2021/09/11 08:52:07;;;;;;;13.13;2.28;;;;;;;;;;4385485;32;20055;-55
2021/09/11 08:54:37;;;;;;;6.07;1.50;;;;;;;;;;4387288;32;20035;-55
2021/09/11 08:57:19;;;;;;;6.57;1.67;;;;;;;;;;4390839;32;20077;-55
2021/09/11 08:59:47;;;;;;;5.12;1.40;;;;;;;;;;4392845;32;20631;-56
2021/09/11 09:02:17;;;;;;;17.77;2.08;;;;;;;;;;4384307;32;20051;-55
2021/09/11 09:04:47;;;;;;;4.85;1.45;;;;;;;;;;4384892;32;20178;-55
2021/09/11 09:07:35;;;;;;;3.65;1.37;;;;;;;;;;4386490;32;20061;-55
2021/09/11 09:10:05;;;;;;;7.62;1.83;;;;;;;;;;4386082;32;20114;-55
2021/09/11 09:12:35;;;;;;;4.85;1.58;;;;;;;;;;4386096;32;20048;-56
2021/09/11 09:15:05;;;;;;;5.70;1.60;;;;;;;;;;4387490;32;20035;-55
2021/09/11 09:17:43;;;;;;;7.60;1.67;;;;;;;;;;4387168;32;20054;-56
2021/09/11 09:20:13;;;;;;;3.90;1.50;;;;;;;;;;4384674;32;20089;-55
2021/09/11 09:22:42;;;;;;;5.43;1.55;;;;;;;;;;4387505;32;20073;-55
2021/09/11 09:25:28;;;;;;;4.03;1.50;;;;;;;;;;4387425;32;20720;-56
2021/09/11 09:27:58;;;;;;;5.97;1.55;;;;;;;;;;4386309;32;20047;-56
2021/09/11 09:30:41;;;;;;;5.72;1.62;;;;;;;;;;4387021;32;20503;-56
2021/09/11 09:33:20;;;;;;;5.07;1.70;;;;;;;;;;4386192;32;21581;-56
2021/09/11 09:35:49;;;;;;;6.53;1.85;;;;;;;;;;4393684;32;20102;-56
2021/09/11 09:38:18;;;;;;;3.70;1.45;;;;;;;;;;4387934;32;20070;-56
2021/09/11 09:40:50;;;;;;;5.82;1.40;;;;;;;;;;4387228;32;20048;-56
2021/09/11 09:43:47;;;;;;;7.07;1.50;;;;;;;;;;4386431;32;20074;-56
2021/09/11 09:46:16;;;;;;;4.40;1.35;;;;;;;;;;4385528;32;20055;-56
2021/09/11 09:48:45;;;;;;;3.25;1.30;;;;;;;;;;4386880;32;20769;-56
2021/09/11 09:51:14;;;;;;;6.47;2.00;;;;;;;;;;4387885;32;20051;-56
2021/09/11 09:53:44;;;;;;;5.62;1.80;;;;;;;;;;4387560;32;20111;-56
2021/09/11 09:56:13;;;;;;;6.30;1.40;;;;;;;;;;4385521;32;20517;-56
2021/09/11 09:58:41;;;;;;;5.30;1.42;;;;;;;;;;4385887;32;20454;-56
2021/09/11 10:01:09;;;;;;;8.98;1.60;;;;;;;;;;4383200;32;20076;-56
2021/09/11 10:03:38;;;;;;;3.60;1.50;;;;;;;;;;4384986;32;20078;-56
2021/09/11 10:06:30;;;;;;;3.97;1.40;;;;;;;;;;4385490;32;21567;-56
2021/09/11 10:09:07;;;;;;;5.97;1.48;;;;;;;;;;4384018;32;20054;-56
2021/09/11 10:11:35;;;;;;;3.72;1.20;;;;;;;;;;4382938;32;20553;-56
2021/09/11 10:14:05;;;;;;;4.87;1.20;;;;;;;;;;4381609;32;20094;-56
2021/09/11 10:16:34;;;;;;;48.92;3.47;;;;;;;;;;4381071;32;20121;-56
2021/09/11 10:19:16;;;;;;;5.55;1.75;;;;;;;;;;4378890;32;20812;-55
2021/09/11 10:21:46;;;;;;;22.63;2.50;;;;;;;;;;4381597;32;20123;-56
2021/09/11 10:24:15;;;;;;;4.57;1.30;;;;;;;;;;4380515;32;20447;-56
2021/09/11 10:26:47;;;;;;;4.18;1.40;;;;;;;;;;4381620;32;20792;-56
2021/09/11 10:29:34;;;;;;;7.45;1.65;;;;;;;;;;4382598;32;20538;-55
2021/09/11 10:32:02;;;;;;;6.50;1.27;;;;;;;;;;4380789;32;20059;-55
2021/09/11 10:34:51;;;;;;;4.95;1.17;;;;;;;;;;4380697;32;20146;-55
2021/09/11 10:37:42;;;;;;;6.85;1.30;;;;;;;;;;4383043;32;20490;-55
2021/09/11 10:40:25;;;;;;;4.72;1.60;;;;;;;;;;4380426;32;20528;-55
2021/09/11 10:43:04;;;;;;;4.68;1.35;;;;;;;;;;4382579;32;20114;-55
2021/09/11 10:45:39;;;;;;;4.03;1.30;;;;;;;;;;4380703;32;20047;-56
2021/09/11 10:48:27;;;;;;;26.45;3.00;;;;;;;;;;4380339;32;20536;-56
2021/09/11 10:50:56;;;;;;;5.80;1.50;;;;;;;;;;4381192;32;20503;-55
2021/09/11 10:53:25;;;;;;;5.60;1.73;;;;;;;;;;4381264;32;20092;-56
2021/09/11 10:55:53;;;;;;;5.62;1.77;;;;;;;;;;4383212;32;20178;-55
2021/09/11 10:58:25;;;;;;;13.27;2.40;;;;;;;;;;4380139;32;20142;-56
2021/09/11 11:01:01;;;;;;;7.03;1.48;;;;;;;;;;4381225;32;20147;-56
2021/09/11 11:03:30;;;;;;;7.25;1.80;;;;;;;;;;4381839;32;20086;-55
2021/09/11 11:06:02;;;;;;;16.87;2.42;;;;;;;;;;4381804;32;20106;-56
2021/09/11 11:08:31;;;;;;;8.85;1.48;;;;;;;;;;4381539;32;20059;-55
2021/09/11 11:11:05;;;;;;;8.98;1.77;;;;;;;;;;4383822;32;20129;-55
2021/09/11 11:13:35;;;;;;;13.23;2.12;;;;;;;;;;4383647;32;20115;-56
2021/09/11 11:16:03;;;;;;;4.05;1.27;;;;;;;;;;4380132;32;20048;-56
2021/09/11 11:18:46;;;;;;;5.37;1.40;;;;;;;;;;4384707;32;20097;-55
2021/09/11 11:21:18;;;;;;;4.10;1.17;;;;;;;;;;4388342;32;20038;-55
2021/09/11 11:23:47;;;;;;;4.35;1.37;;;;;;;;;;4380579;32;20058;-55
2021/09/11 11:26:18;;;;;;;4.78;1.50;;;;;;;;;;4372872;32;20164;-55
2021/09/11 11:28:46;;;;;;;7.03;1.37;;;;;;;;;;4385242;32;20058;-55
2021/09/11 11:31:15;;;;;;;11.30;2.12;;;;;;;;;;4383661;32;20082;-55
2021/09/11 11:33:44;;;;;;;5.18;1.33;;;;;;;;;;4380619;32;21655;-56
2021/09/11 11:36:12;;;;;;;5.07;1.40;;;;;;;;;;4381152;32;20435;-56
2021/09/11 11:38:41;;;;;;;4.85;1.48;;;;;;;;;;4381606;32;20099;-55
2021/09/11 11:41:09;;;;;;;5.00;1.37;;;;;;;;;;4382913;32;20494;-55
2021/09/11 11:43:39;;;;;;;5.25;1.40;;;;;;;;;;4380336;32;20070;-55
2021/09/11 11:46:08;;;;;;;6.65;1.35;;;;;;;;;;4382636;32;20078;-55
2021/09/11 11:48:36;;;;;;;7.43;1.30;;;;;;;;;;4381792;32;20158;-56
2021/09/11 11:51:12;;;;;;;3.90;1.20;;;;;;;;;;4379056;32;20094;-55
2021/09/11 11:53:41;;;;;;;7.12;1.60;;;;;;;;;;4381543;32;20125;-55
2021/09/11 11:56:10;;;;;;;10.73;1.92;;;;;;;;;;4379559;32;20102;-55
2021/09/11 11:58:39;;;;;;;5.07;1.30;;;;;;;;;;4383395;32;20090;-55
2021/09/11 12:01:07;;;;;;;19.87;2.30;;;;;;;;;;4383154;32;20080;-55
2021/09/11 12:03:43;;;;;;;8.30;1.62;;;;;;;;;;4377357;32;20066;-55
2021/09/11 12:06:21;;;;;;;4.60;1.37;;;;;;;;;;4383252;32;20086;-55
2021/09/11 12:08:50;;;;;;;6.07;1.30;;;;;;;;;;4383910;32;20082;-55
2021/09/11 12:11:21;;;;;;;5.95;1.70;;;;;;;;;;4383136;32;20475;-55
2021/09/11 12:13:54;;;;;;;8.48;1.60;;;;;;;;;;4383893;32;20106;-56
2021/09/11 12:16:23;;;;;;;9.68;1.50;;;;;;;;;;4382314;32;20046;-55
2021/09/11 12:18:52;;;;;;;6.70;1.77;;;;;;;;;;4378681;32;20423;-56
2021/09/11 12:21:20;;;;;;;6.78;1.73;;;;;;;;;;4383644;32;20106;-55
2021/09/11 12:23:49;;;;;;;5.45;1.37;;;;;;;;;;4379678;32;20068;-56
2021/09/11 12:26:38;;;;;;;9.52;1.35;;;;;;;;;;4378981;32;20054;-55
2021/09/11 12:29:09;;;;;;;7.80;1.60;;;;;;;;;;4378059;32;20077;-55
2021/09/11 12:31:40;;;;;;;5.20;1.40;;;;;;;;;;4384413;32;20506;-56
2021/09/11 12:34:18;;;;;;;3.92;1.20;;;;;;;;;;4384092;32;20136;-55
2021/09/11 12:36:47;;;;;;;4.15;1.27;;;;;;;;;;4382547;32;20047;-55
2021/09/11 12:39:15;;;;;;;3.45;1.45;;;;;;;;;;4379647;32;20752;-56
2021/09/11 12:41:45;;;;;;;5.47;1.60;;;;;;;;;;4379129;32;20076;-55
2021/09/11 12:44:13;;;;;;;7.85;1.85;;;;;;;;;;4381596;32;20518;-56
2021/09/11 12:46:53;;;;;;;6.85;1.65;;;;;;;;;;4382824;32;20059;-55
2021/09/11 12:49:24;;;;;;;3.17;1.10;;;;;;;;;;4383406;32;20127;-55
2021/09/11 12:51:53;;;;;;;7.68;1.60;;;;;;;;;;4391100;32;20082;-54
2021/09/11 12:54:21;;;;;;;7.05;1.70;;;;;;;;;;4388049;32;20143;-55
2021/09/11 12:56:51;;;;;;;7.90;1.70;;;;;;;;;;4382234;32;20105;-55
2021/09/11 12:59:19;;;;;;;7.60;1.60;;;;;;;;;;4383302;32;20063;-55
2021/09/11 13:01:48;;;;;;;5.60;1.40;;;;;;;;;;4384084;32;20063;-54
2021/09/11 13:04:18;;;;;;;6.78;1.30;;;;;;;;;;4386511;32;20063;-54
2021/09/11 13:06:46;;;;;;;13.60;2.20;;;;;;;;;;4384394;32;20100;-55
2021/09/11 13:09:16;;;;;;;4.85;1.30;;;;;;;;;;4383192;32;20132;-54
2021/09/11 13:11:45;;;;;;;4.87;1.50;;;;;;;;;;4385854;32;20066;-55
2021/09/11 13:14:14;;;;;;;7.65;1.58;;;;;;;;;;4383340;32;20253;-55
2021/09/11 13:16:42;;;;;;;4.25;1.48;;;;;;;;;;4393998;32;20039;-55
2021/09/11 13:19:11;;;;;;;21.58;2.25;;;;;;;;;;4391820;32;20047;-54
2021/09/11 13:21:40;;;;;;;5.30;1.55;;;;;;;;;;4381410;32;20043;-54
2021/09/11 13:24:10;;;;;;;10.05;1.90;;;;;;;;;;4386194;32;20131;-55
2021/09/11 13:26:38;;;;;;;10.55;1.70;;;;;;;;;;4384777;32;20443;-55
2021/09/11 13:29:07;;;;;;;12.48;2.00;;;;;;;;;;4383466;32;20114;-55
2021/09/11 13:31:36;;;;;;;3.45;1.23;;;;;;;;;;4383632;32;20343;-55
2021/09/11 13:34:11;;;;;;;6.85;1.42;;;;;;;;;;4382954;32;20708;-54
2021/09/11 13:36:40;;;;;;;8.23;1.40;;;;;;;;;;4382208;32;20046;-54
2021/09/11 13:39:08;;;;;;;7.78;1.58;;;;;;;;;;4381667;32;20466;-54
2021/09/11 13:41:37;;;;;;;5.32;1.67;;;;;;;;;;4381904;32;20086;-55
2021/09/11 13:44:05;;;;;;;7.70;1.42;;;;;;;;;;4381008;32;20054;-54
2021/09/11 13:46:38;;;;;;;4.07;1.30;;;;;;;;;;4384680;32;20132;-55
2021/09/11 13:49:07;;;;;;;2.45;0.93;;;;;;;;;;4385220;32;20398;-55
2021/09/11 13:51:36;;;;;;;7.50;1.87;;;;;;;;;;4384375;32;20082;-54
2021/09/11 13:54:04;;;;;;;6.85;1.77;;;;;;;;;;4385270;32;20043;-54
2021/09/11 13:56:34;;;;;;;5.20;1.70;;;;;;;;;;4389375;32;20054;-54
2021/09/11 13:59:02;;;;;;;10.90;1.40;;;;;;;;;;4385744;32;20042;-55
2021/09/11 14:01:30;;;;;;;6.47;1.60;;;;;;;;;;4387271;32;20039;-55
2021/09/11 14:03:59;;;;;;;8.32;1.75;;;;;;;;;;4387992;32;20455;-55
2021/09/11 14:06:27;;;;;;;5.20;1.48;;;;;;;;;;4387037;32;20058;-54
2021/09/11 14:08:56;;;;;;;6.70;1.87;;;;;;;;;;4385254;32;20089;-54
2021/09/11 14:11:24;;;;;;;6.65;1.70;;;;;;;;;;4382780;32;20128;-55
2021/09/11 14:13:52;;;;;;;7.45;1.42;;;;;;;;;;4384686;32;20066;-54
2021/09/11 14:16:21;;;;;;;6.18;1.30;;;;;;;;;;4386035;32;20078;-55
2021/09/11 14:18:49;;;;;;;8.07;1.48;;;;;;;;;;4383558;32;20075;-55
2021/09/11 14:21:18;;;;;;;6.62;1.42;;;;;;;;;;4384160;32;20723;-55
2021/09/11 14:23:46;;;;;;;4.60;1.70;;;;;;;;;;4385705;32;20043;-54
2021/09/11 14:26:14;;;;;;;4.95;1.40;;;;;;;;;;4387591;32;20501;-54
2021/09/11 14:28:44;;;;;;;6.87;1.73;;;;;;;;;;4386509;32;21395;-54